Time;durP1;ratioP1;P1;durP2;ratioP2;P2;SDS_P1;SDS_P2;PMS_P1;PMS_P2;Temp;Humidity;BMP_temperature;BMP_pressure;BME280_temperature;BME280_humidity;BME280_pressure;Samples;Min_cycle;Max_cycle;Signal;HPM_P1;HPM_P2
2022/03/01 00:02:02;;;;;;;;;;;;;;;10.38;63.52;102003.56;145002;916;1016;-87
2022/03/01 00:04:28;;;;;;;;;;;;;;;10.44;63.25;101990.91;145002;919;1016;-88
2022/03/01 00:06:54;;;;;;;;;;;;;;;10.45;63.18;101995.28;145002;917;1022;-86
2022/03/01 00:09:20;;;;;;;;;;;;;;;10.51;63.09;101984.28;145002;918;1017;-85
2022/03/01 00:11:46;;;;;;;;;;;;;;;10.44;63.04;101983.09;145002;917;1020;-89
2022/03/01 00:14:12;;;;;;;;;;;;;;;10.47;62.69;101977.19;145002;919;1017;-88
2022/03/01 00:16:39;;;;;;;;;;;;;;;10.50;63.17;101980.81;145002;916;1020;-89
2022/03/01 00:19:05;;;;;;;;;;;;;;;10.59;63.34;101982.09;145002;919;1018;-88
2022/03/01 00:21:36;;;;;;;;;;;;;;;10.55;63.69;101983.66;145002;917;1019;-88
2022/03/01 00:24:05;;;;;;;;;;;;;;;10.45;63.99;101979.72;145002;518;1367;-88
2022/03/01 00:26:46;;;;;;;;;;;;;;;10.59;63.57;101967.38;145002;491;1420;-89
2022/03/01 00:31:44;;;;;;;;;;;;;;;10.55;63.88;101968.06;145002;928;1017;-87
2022/03/01 00:34:11;;;;;;;;;;;;;;;10.51;63.82;101974.81;145002;920;1016;-86
2022/03/01 00:36:49;;;;;;;;;;;;;;;10.32;64.54;101972.06;145002;922;1016;-87
2022/03/01 00:39:23;;;;;;;;;;;;;;;10.56;63.92;101974.16;145002;612;1361;-88
2022/03/01 00:44:22;;;;;;;;;;;;;;;10.60;63.56;101965.69;145002;930;1021;-90
2022/03/01 00:46:48;;;;;;;;;;;;;;;10.49;64.01;101963.44;145002;919;1017;-89
2022/03/01 00:49:14;;;;;;;;;;;;;;;10.53;63.88;101960.22;145002;918;1016;-88
2022/03/01 00:51:40;;;;;;;;;;;;;;;10.51;63.88;101964.44;145002;916;1020;-87
2022/03/01 00:54:14;;;;;;;;;;;;;;;10.61;64.10;101960.59;145002;921;1016;-87
2022/03/01 00:56:40;;;;;;;;;;;;;;;10.66;63.07;101951.31;145002;920;1020;-88
2022/03/01 00:59:07;;;;;;;;;;;;;;;10.68;63.61;101944.47;145002;922;1016;-89
2022/03/01 01:01:35;;;;;;;;;;;;;;;10.75;63.25;101945.66;145002;628;1355;-89
2022/03/01 01:04:01;;;;;;;;;;;;;;;10.82;62.99;101939.97;145001;509;2000;-87
2022/03/01 01:06:27;;;;;;;;;;;;;;;10.88;63.49;101939.34;145002;935;1016;-89
2022/03/01 01:08:54;;;;;;;;;;;;;;;10.90;62.85;101929.94;145001;919;2000;-87
2022/03/01 01:11:20;;;;;;;;;;;;;;;10.84;63.48;101933.12;145002;921;1015;-89
2022/03/01 01:13:46;;;;;;;;;;;;;;;10.86;62.69;101928.00;145002;919;1016;-88
2022/03/01 01:16:12;;;;;;;;;;;;;;;10.86;63.37;101928.91;145002;921;1017;-88
2022/03/01 01:18:43;;;;;;;;;;;;;;;10.88;63.02;101928.94;145002;919;1017;-89
2022/03/01 01:21:13;;;;;;;;;;;;;;;10.84;63.33;101930.53;145002;921;1017;-88
2022/03/01 01:23:39;;;;;;;;;;;;;;;10.88;63.16;101929.88;145002;919;1016;-87
2022/03/01 01:26:06;;;;;;;;;;;;;;;10.90;62.82;101932.53;145002;921;1016;-87
2022/03/01 01:28:33;;;;;;;;;;;;;;;10.91;62.86;101929.09;145002;919;1016;-87
2022/03/01 01:31:01;;;;;;;;;;;;;;;10.88;63.25;101924.66;145002;921;1017;-85
2022/03/01 01:33:34;;;;;;;;;;;;;;;10.91;62.60;101917.84;145002;919;1015;-87
2022/03/01 01:36:04;;;;;;;;;;;;;;;10.88;63.19;101926.34;145002;681;1242;-86
2022/03/01 01:38:30;;;;;;;;;;;;;;;10.96;62.48;101916.34;145002;922;1017;-90
2022/03/01 01:40:56;;;;;;;;;;;;;;;10.99;63.15;101920.00;145002;919;1017;-86
2022/03/01 01:43:22;;;;;;;;;;;;;;;11.02;62.35;101922.75;145002;922;1017;-89
2022/03/01 01:45:49;;;;;;;;;;;;;;;11.01;62.68;101914.87;145002;920;1018;-88
2022/03/01 01:48:15;;;;;;;;;;;;;;;11.00;62.69;101916.56;145002;921;1019;-87
2022/03/01 01:50:41;;;;;;;;;;;;;;;10.99;62.28;101921.69;145002;916;1016;-86
2022/03/01 01:53:10;;;;;;;;;;;;;;;10.97;62.92;101918.13;145002;922;1018;-88
2022/03/01 01:55:36;;;;;;;;;;;;;;;10.84;63.90;101930.53;145002;920;1016;-89
2022/03/01 01:58:03;;;;;;;;;;;;;;;10.81;63.54;101927.78;145002;922;1016;-89
2022/03/01 02:00:29;;;;;;;;;;;;;;;10.79;63.45;101925.94;145002;915;1017;-90
2022/03/01 02:02:56;;;;;;;;;;;;;;;10.79;63.60;101925.94;145002;922;1018;-88
2022/03/01 02:05:22;;;;;;;;;;;;;;;10.72;63.46;101919.53;145002;920;1016;-88
2022/03/01 02:07:49;;;;;;;;;;;;;;;10.75;63.47;101924.87;145001;922;2000;-90
2022/03/01 02:10:16;;;;;;;;;;;;;;;10.77;63.12;101924.94;145002;919;1016;-87
2022/03/01 02:12:43;;;;;;;;;;;;;;;10.73;63.20;101923.03;145002;922;1019;-90
2022/03/01 02:15:09;;;;;;;;;;;;;;;10.68;62.91;101918.50;145002;920;1018;-88
2022/03/01 02:17:36;;;;;;;;;;;;;;;10.63;63.50;101926.91;145002;921;1016;-88
2022/03/01 02:20:05;;;;;;;;;;;;;;;10.64;63.57;101923.47;145002;920;1016;-87
2022/03/01 02:22:32;;;;;;;;;;;;;;;10.64;63.39;101926.97;145002;922;1019;-87
2022/03/01 02:24:58;;;;;;;;;;;;;;;10.62;63.52;101926.00;145002;919;1017;-86
2022/03/01 02:27:24;;;;;;;;;;;;;;;10.57;64.23;101929.19;145002;918;1018;-88
2022/03/01 02:29:52;;;;;;;;;;;;;;;10.46;64.03;101919.16;145002;920;1020;-90
2022/03/01 02:32:19;;;;;;;;;;;;;;;10.34;64.76;101915.97;145002;921;1016;-88
2022/03/01 02:34:47;;;;;;;;;;;;;;;10.28;64.35;101920.81;145002;920;1021;-88
2022/03/01 02:37:13;;;;;;;;;;;;;;;10.22;64.44;101907.53;145003;922;1021;-88
2022/03/01 02:39:39;;;;;;;;;;;;;;;10.25;64.58;101905.97;145003;920;1018;-87
2022/03/01 02:42:06;;;;;;;;;;;;;;;10.31;64.31;101903.69;145003;922;1017;-86
2022/03/01 02:44:35;;;;;;;;;;;;;;;10.38;64.62;101917.00;145003;920;1018;-86
2022/03/01 02:47:01;;;;;;;;;;;;;;;10.36;63.89;101898.78;145003;922;1016;-87
2022/03/01 02:52:02;;;;;;;;;;;;;;;10.50;63.78;101910.72;145003;600;1380;-89
2022/03/01 02:54:28;;;;;;;;;;;;;;;10.56;63.86;101898.84;145003;919;1017;-88
2022/03/01 02:56:59;;;;;;;;;;;;;;;10.46;64.37;101902.69;145003;913;1016;-91
2022/03/01 02:59:25;;;;;;;;;;;;;;;10.49;63.82;101903.75;145003;920;1017;-88
2022/03/01 03:01:51;;;;;;;;;;;;;;;10.52;64.02;101897.81;145003;917;1018;-89
2022/03/01 03:04:17;;;;;;;;;;;;;;;10.55;63.53;101894.47;145002;919;1017;-88
2022/03/01 03:06:43;;;;;;;;;;;;;;;10.55;63.94;101897.97;145002;918;1023;-86
2022/03/01 03:09:09;;;;;;;;;;;;;;;10.48;63.82;101898.47;145002;915;1018;-87
2022/03/01 03:11:35;;;;;;;;;;;;;;;10.38;64.07;101897.13;145002;917;1015;-87
2022/03/01 03:14:01;;;;;;;;;;;;;;;10.40;64.50;101900.69;145002;916;1016;-89
2022/03/01 03:16:27;;;;;;;;;;;;;;;10.45;64.29;101901.81;145002;913;1016;-87
2022/03/01 03:18:54;;;;;;;;;;;;;;;10.49;64.37;101895.94;145002;919;1019;-88
2022/03/01 03:29:00;;;;;;;;;;;;;;;10.62;64.06;101905.22;145001;642;2000;-87
2022/03/01 03:31:26;;;;;;;;;;;;;;;10.66;63.64;101907.16;145002;919;1016;-88
2022/03/01 03:33:52;;;;;;;;;;;;;;;10.70;64.20;101908.19;145002;917;1016;-87
2022/03/01 03:36:18;;;;;;;;;;;;;;;10.64;64.08;101903.63;145002;920;1017;-88
2022/03/01 03:38:44;;;;;;;;;;;;;;;10.68;64.64;101915.03;145002;913;1018;-88
2022/03/01 03:41:11;;;;;;;;;;;;;;;10.67;64.16;101908.97;145002;915;1015;-88
2022/03/01 03:43:36;;;;;;;;;;;;;;;10.69;63.72;101909.91;145002;922;1016;-89
2022/03/01 03:46:03;;;;;;;;;;;;;;;10.68;64.29;101918.50;145002;917;1019;-88
2022/03/01 03:48:29;;;;;;;;;;;;;;;10.68;64.12;101915.91;145002;919;1016;-86
2022/03/01 03:50:55;;;;;;;;;;;;;;;10.67;64.23;101913.22;145002;917;1018;-88
2022/03/01 03:53:23;;;;;;;;;;;;;;;10.66;63.93;101907.16;145002;915;1017;-89
2022/03/01 03:55:49;;;;;;;;;;;;;;;10.68;63.98;101915.91;145002;921;1017;-87
2022/03/01 03:58:15;;;;;;;;;;;;;;;10.70;64.03;101914.25;145002;919;1017;-89
2022/03/01 04:00:41;;;;;;;;;;;;;;;10.70;64.50;101909.06;145002;917;1017;-88
2022/03/01 04:03:08;;;;;;;;;;;;;;;10.67;63.79;101915.84;145002;919;1019;-88
2022/03/01 04:05:36;;;;;;;;;;;;;;;10.66;64.08;101911.47;145002;921;1017;-90
2022/03/01 04:08:03;;;;;;;;;;;;;;;10.47;65.33;101912.28;145002;919;1016;-90
2022/03/01 04:10:29;;;;;;;;;;;;;;;10.44;65.53;101907.81;145002;921;1016;-89
2022/03/01 04:12:55;;;;;;;;;;;;;;;10.51;65.26;101912.50;145002;915;1016;-88
2022/03/01 04:15:21;;;;;;;;;;;;;;;10.55;64.89;101913.53;145002;921;1017;-87
2022/03/01 04:17:47;;;;;;;;;;;;;;;10.55;64.38;101913.53;145002;915;1018;-90
2022/03/01 04:20:12;;;;;;;;;;;;;;;10.51;64.27;101914.19;145001;917;2000;-87
2022/03/01 04:22:39;;;;;;;;;;;;;;;10.52;64.48;101910.78;145002;915;1016;-86
2022/03/01 04:25:05;;;;;;;;;;;;;;;10.57;64.72;101903.22;145002;922;1018;-90
2022/03/01 04:27:31;;;;;;;;;;;;;;;10.60;64.85;101911.19;145002;919;1017;-88
2022/03/01 04:29:57;;;;;;;;;;;;;;;10.55;65.05;101915.22;145002;917;1016;-89
2022/03/01 04:32:24;;;;;;;;;;;;;;;10.55;65.58;101907.44;145002;915;1016;-88
2022/03/01 04:34:50;;;;;;;;;;;;;;;10.56;64.95;101917.03;145002;921;1020;-87
2022/03/01 04:37:23;;;;;;;;;;;;;;;10.52;65.28;101918.59;145002;625;1343;-88
2022/03/01 04:39:52;;;;;;;;;;;;;;;10.53;65.42;101917.78;145002;464;1430;-85
2022/03/01 04:42:18;;;;;;;;;;;;;;;10.50;65.57;101917.63;145002;922;1016;-86
2022/03/01 04:44:45;;;;;;;;;;;;;;;10.50;65.73;101915.03;145001;920;2000;-87
2022/03/01 04:47:11;;;;;;;;;;;;;;;10.20;66.48;101923.03;145002;921;1016;-86
2022/03/01 04:49:37;;;;;;;;;;;;;;;10.36;66.10;101921.25;145002;920;1021;-86
2022/03/01 04:52:04;;;;;;;;;;;;;;;10.44;65.86;101926.00;145002;921;1018;-87
2022/03/01 04:54:30;;;;;;;;;;;;;;;10.43;66.51;101929.38;145002;918;1017;-87
2022/03/01 04:56:56;;;;;;;;;;;;;;;10.37;66.56;101923.88;145001;921;2000;-88
2022/03/01 04:59:22;;;;;;;;;;;;;;;10.40;66.89;101929.22;145002;919;1018;-89
2022/03/01 05:01:48;;;;;;;;;;;;;;;10.42;66.25;101938.00;145002;921;1017;-87
2022/03/01 05:04:14;;;;;;;;;;;;;;;10.44;66.51;101933.78;145002;919;1019;-87
2022/03/01 05:06:40;;;;;;;;;;;;;;;10.40;65.92;101929.22;145002;917;1016;-89
2022/03/01 05:09:06;;;;;;;;;;;;;;;10.44;65.91;101944.16;145002;915;1016;-86
2022/03/01 05:11:32;;;;;;;;;;;;;;;10.43;65.77;101939.78;145002;921;1016;-86
2022/03/01 05:13:58;;;;;;;;;;;;;;;10.32;66.10;101939.25;145002;919;1016;-87
2022/03/01 05:16:27;;;;;;;;;;;;;;;10.40;66.55;101942.22;145002;917;1018;-90
2022/03/01 05:18:53;;;;;;;;;;;;;;;10.28;66.14;101950.25;145002;919;1019;-89
2022/03/01 05:21:19;;;;;;;;;;;;;;;10.34;66.17;101949.72;145001;918;2000;-87
2022/03/01 05:23:45;;;;;;;;;;;;;;;10.41;66.31;101948.31;145002;915;1015;-89
2022/03/01 05:26:12;;;;;;;;;;;;;;;10.26;66.51;101956.16;145002;917;1018;-89
2022/03/01 05:28:41;;;;;;;;;;;;;;;10.38;66.47;101946.44;145002;919;1015;-90
2022/03/01 05:31:08;;;;;;;;;;;;;;;10.24;66.17;101955.22;145002;921;1016;-91
2022/03/01 05:33:34;;;;;;;;;;;;;;;10.30;65.45;101939.94;145001;919;2000;-89
2022/03/01 05:36:00;;;;;;;;;;;;;;;10.40;65.46;101944.81;145002;917;1017;-90
2022/03/01 05:38:37;;;;;;;;;;;;;;;10.47;65.09;101949.50;145002;919;1016;-89
2022/03/01 05:41:04;;;;;;;;;;;;;;;10.49;64.47;101944.41;145002;921;1016;-90
2022/03/01 05:43:30;;;;;;;;;;;;;;;10.11;65.08;101956.28;145002;919;1016;-91
2022/03/01 05:45:57;;;;;;;;;;;;;;;10.26;64.76;101951.91;145002;921;1017;-87
2022/03/01 05:48:23;;;;;;;;;;;;;;;10.19;64.88;101951.50;145002;919;1016;-91
2022/03/01 05:50:51;;;;;;;;;;;;;;;10.14;64.96;101951.25;145002;922;1016;-90
2022/03/01 06:08:46;;;;;;;;;;;;;;;10.01;65.29;101990.38;145002;605;1394;-87
2022/03/01 06:11:12;;;;;;;;;;;;;;;9.86;65.72;101990.44;145002;920;1015;-89
2022/03/01 06:13:38;;;;;;;;;;;;;;;10.06;65.27;101994.09;145002;913;1016;-90
2022/03/01 06:16:06;;;;;;;;;;;;;;;9.95;65.44;101999.59;145002;919;1016;-91
2022/03/01 06:41:45;;;;;;;;;;;;;;;10.29;65.29;102023.81;145002;568;1396;-90
2022/03/01 07:07:24;;;;;;;;;;;;;;;10.07;65.65;102042.56;145002;633;1355;-89
2022/03/01 07:09:51;;;;;;;;;;;;;;;10.13;65.11;102054.16;145002;921;1020;-90
2022/03/01 07:12:17;;;;;;;;;;;;;;;10.04;65.24;102058.88;145002;920;1016;-89
2022/03/01 07:14:45;;;;;;;;;;;;;;;10.20;64.76;102054.47;145002;921;1017;-89
2022/03/01 07:17:14;;;;;;;;;;;;;;;10.26;64.74;102055.72;145002;919;1016;-89
2022/03/01 07:19:40;;;;;;;;;;;;;;;10.34;64.76;102062.22;145002;922;1018;-88
2022/03/01 07:22:07;;;;;;;;;;;;;;;10.41;64.28;102062.53;145002;919;1018;-88
2022/03/01 07:24:33;;;;;;;;;;;;;;;10.34;64.66;102061.34;145002;671;1409;-88
2022/03/01 07:27:08;;;;;;;;;;;;;;;10.20;65.97;102065.75;145001;922;2000;-90
2022/03/01 07:29:36;;;;;;;;;;;;;;;10.14;65.36;102068.91;145002;919;1019;-89
2022/03/01 07:32:04;;;;;;;;;;;;;;;9.88;65.91;102071.81;145002;922;1018;-88
2022/03/01 07:34:32;;;;;;;;;;;;;;;10.02;65.07;102073.44;145002;920;1016;-90
2022/03/01 07:36:59;;;;;;;;;;;;;;;9.98;65.34;102074.09;145002;921;1016;-90
2022/03/01 07:41:56;;;;;;;;;;;;;;;10.11;65.20;102076.53;145002;930;1020;-88
2022/03/01 07:44:22;;;;;;;;;;;;;;;9.54;65.31;102077.75;145002;921;1019;-87
2022/03/01 07:46:48;;;;;;;;;;;;;;;9.59;66.28;102074.63;145002;919;1016;-90
2022/03/01 07:49:14;;;;;;;;;;;;;;;9.55;66.66;102079.53;145002;922;1017;-90
2022/03/01 07:51:42;;;;;;;;;;;;;;;9.56;65.44;102073.53;145002;923;1015;-90
2022/03/01 07:54:08;;;;;;;;;;;;;;;9.50;65.72;102078.41;145002;922;1017;-90
2022/03/01 07:56:34;;;;;;;;;;;;;;;9.51;65.81;102068.09;145002;924;1017;-89
2022/03/01 07:59:01;;;;;;;;;;;;;;;9.60;65.62;102071.19;145002;922;1016;-89
2022/03/01 08:01:27;;;;;;;;;;;;;;;9.54;66.40;102069.97;145002;923;1017;-91
2022/03/01 08:03:55;;;;;;;;;;;;;;;9.42;64.83;102072.78;145002;922;1020;-88
2022/03/01 08:06:22;;;;;;;;;;;;;;;9.56;65.74;102074.44;145002;924;1016;-90
2022/03/01 08:08:48;;;;;;;;;;;;;;;9.49;64.83;102071.41;145002;922;1019;-90
2022/03/01 08:21:38;;;;;;;;;;;;;;;10.04;64.62;102074.44;145002;820;1169;-89
2022/03/01 08:24:04;;;;;;;;;;;;;;;10.11;64.58;102073.94;145002;923;1018;-88
2022/03/01 08:26:33;;;;;;;;;;;;;;;10.11;64.75;102065.25;145002;922;1016;-88
2022/03/01 08:28:59;;;;;;;;;;;;;;;10.23;64.38;102065.91;145002;923;1016;-90
2022/03/01 08:31:25;;;;;;;;;;;;;;;10.37;64.05;102063.19;145002;917;1016;-90
2022/03/01 08:33:53;;;;;;;;;;;;;;;10.52;63.59;102059.66;145002;924;1022;-89
2022/03/01 08:51:48;;;;;;;;;;;;;;;10.23;65.06;102071.13;145002;620;1348;-89
2022/03/01 08:54:17;;;;;;;;;;;;;;;10.40;64.33;102066.81;145002;921;1015;-91
2022/03/01 08:56:45;;;;;;;;;;;;;;;10.46;64.53;102074.03;145002;920;1016;-88
2022/03/01 08:59:17;;;;;;;;;;;;;;;10.64;63.93;102074.09;145002;921;1016;-89
2022/03/01 09:04:16;;;;;;;;;;;;;;;10.63;64.03;102081.00;145002;931;1016;-90
2022/03/01 09:06:43;;;;;;;;;;;;;;;10.76;63.64;102073.84;145002;922;1015;-89
2022/03/01 09:09:13;;;;;;;;;;;;;;;10.85;63.15;102082.09;145002;924;1016;-89
2022/03/01 09:11:40;;;;;;;;;;;;;;;10.50;64.00;102082.06;145002;922;1016;-90
2022/03/01 09:14:08;;;;;;;;;;;;;;;10.46;63.55;102081.84;145002;924;1017;-88
2022/03/01 09:16:38;;;;;;;;;;;;;;;10.55;63.84;102086.59;145002;922;1019;-88
2022/03/01 09:26:48;;;;;;;;;;;;;;;10.53;64.32;102086.56;145002;582;1407;-90
2022/03/01 09:29:14;;;;;;;;;;;;;;;10.59;63.28;102088.56;145002;921;1018;-88
2022/03/01 09:31:40;;;;;;;;;;;;;;;10.57;63.64;102088.47;145002;919;1017;-88
2022/03/01 09:34:08;;;;;;;;;;;;;;;10.63;63.63;102082.72;145002;921;1017;-89
2022/03/01 09:36:34;;;;;;;;;;;;;;;10.73;63.34;102084.97;145002;919;1016;-88
2022/03/01 09:39:00;;;;;;;;;;;;;;;10.77;62.54;102076.53;145002;921;1016;-91
2022/03/01 09:41:26;;;;;;;;;;;;;;;10.72;62.72;102072.78;145002;916;1016;-85
2022/03/01 09:43:53;;;;;;;;;;;;;;;10.73;63.38;102077.16;145002;916;1016;-89
2022/03/01 09:46:20;;;;;;;;;;;;;;;10.65;63.27;102081.97;145002;919;1017;-90
2022/03/01 09:48:46;;;;;;;;;;;;;;;10.66;62.78;102081.16;145002;922;1016;-87
2022/03/01 09:51:34;;;;;;;;;;;;;;;10.25;63.99;102089.38;145001;628;2000;-87
